createdAt,value
2022-11-16T00:02:44.955Z,8.6
2022-11-16T00:08:14.925Z,8.6
2022-11-16T00:14:07.010Z,8.6
2022-11-16T00:19:37.501Z,8.5
2022-11-16T00:25:18.064Z,8.5
2022-11-16T00:30:24.430Z,8.5
2022-11-16T00:35:58.265Z,8.6
2022-11-16T00:41:36.967Z,8.6
2022-11-16T00:47:02.630Z,8.6
2022-11-16T00:52:42.373Z,8.6
2022-11-16T00:58:30.632Z,8.6
2022-11-16T01:03:42.752Z,8.5
2022-11-16T01:09:27.287Z,8.5
2022-11-16T01:15:03.050Z,8.5
2022-11-16T01:20:36.254Z,8.5
2022-11-16T01:26:03.737Z,8.5
2022-11-16T01:31:25.560Z,8.5
2022-11-16T01:37:19.224Z,8.6
2022-11-16T01:48:23.375Z,8.6
2022-11-16T01:53:49.312Z,8.6
2022-11-16T01:59:10.639Z,8.7
2022-11-16T02:05:01.732Z,8.7
2022-11-16T02:10:20.548Z,8.8
2022-11-16T02:16:11.286Z,8.8
2022-11-16T02:21:26.552Z,8.8
2022-11-16T02:26:50.775Z,8.8
2022-11-16T02:32:31.286Z,8.8
2022-11-16T02:38:00.563Z,8.8
2022-11-16T02:43:51.535Z,8.8
2022-11-16T02:49:10.043Z,8.8
2022-11-16T02:54:31.769Z,8.8
2022-11-16T03:00:26.669Z,8.8
2022-11-16T03:05:42.546Z,8.8
2022-11-16T03:11:24.921Z,8.8
2022-11-16T03:17:02.797Z,8.8
2022-11-16T03:22:13.236Z,8.8
2022-11-16T03:28:07.263Z,8.8
2022-11-16T03:33:24.904Z,8.8
2022-11-16T03:39:00.692Z,8.8
2022-11-16T03:44:33.071Z,8.8
2022-11-16T03:50:01.464Z,8.7
2022-11-16T03:55:27.930Z,8.6
2022-11-16T04:01:02.307Z,8.7
2022-11-16T04:06:59.822Z,8.6
2022-11-16T04:12:31.969Z,8.6
2022-11-16T04:17:46.086Z,8.7
2022-11-16T04:23:13.380Z,8.6
2022-11-16T04:28:56.067Z,8.6
2022-11-16T04:34:41.215Z,8.6
2022-11-16T04:40:09.807Z,8.6
2022-11-16T04:45:47.603Z,8.6
2022-11-16T04:51:20.696Z,8.6
2022-11-16T04:56:35.095Z,8.6
2022-11-16T05:02:17.589Z,8.6
2022-11-16T05:07:36.064Z,8.7
2022-11-16T05:13:08.494Z,8.7
2022-11-16T05:18:43.012Z,8.7
2022-11-16T05:24:25.997Z,8.7
2022-11-16T05:29:56.252Z,8.6
2022-11-16T05:35:16.282Z,8.6
2022-11-16T05:40:56.224Z,8.6
2022-11-16T05:46:24.571Z,8.6
2022-11-16T05:52:11.251Z,8.5
2022-11-16T05:57:38.313Z,8.4
2022-11-16T06:03:16.721Z,8.4
2022-11-16T06:08:39.643Z,8.5
2022-11-16T06:14:15.983Z,8.6
2022-11-16T06:19:50.134Z,8.7
2022-11-16T06:25:13.538Z,8.7
2022-11-16T06:31:06.029Z,8.6
2022-11-16T06:36:36.853Z,8.7
2022-11-16T06:47:18.066Z,8.7
2022-11-16T06:53:03.289Z,8.7
2022-11-16T06:58:22.264Z,8.7
2022-11-16T07:04:17.356Z,8.7
2022-11-16T07:09:54.545Z,8.7
2022-11-16T07:15:11.835Z,8.7
2022-11-16T07:20:51.365Z,8.8
2022-11-16T07:26:25.898Z,9
2022-11-16T07:31:51.925Z,9.2
2022-11-16T07:37:24.226Z,8.9
2022-11-16T07:43:03.912Z,8.9
2022-11-16T07:48:23.083Z,8.9
2022-11-16T07:53:50.542Z,8.8
2022-11-16T07:59:41.317Z,9
2022-11-16T08:05:06.357Z,9.1
2022-11-16T08:10:26.215Z,8.9
2022-11-16T08:16:01.613Z,8.6
2022-11-16T08:21:59.709Z,8.8
2022-11-16T08:27:15.918Z,9
2022-11-16T08:33:04.956Z,9.2
2022-11-16T08:38:20.381Z,9.7
2022-11-16T08:43:57.676Z,10
2022-11-16T08:49:30.881Z,9.9
2022-11-16T08:55:07.898Z,10.3
2022-11-16T09:00:40.592Z,10.2
2022-11-16T09:06:01.758Z,10.2
2022-11-16T09:11:54.554Z,10.8
2022-11-16T09:17:04.234Z,11.2
2022-11-16T09:22:53.071Z,11.4
2022-11-16T09:28:11.669Z,11.6
2022-11-16T09:33:48.293Z,11.6
2022-11-16T09:39:33.840Z,11.6
2022-11-16T09:44:47.766Z,11.9
2022-11-16T09:50:35.642Z,11.8
2022-11-16T09:55:57.534Z,12
2022-11-16T10:01:33.358Z,11.6
2022-11-16T10:07:06.942Z,11.8
2022-11-16T10:12:45.224Z,11.6
2022-11-16T10:18:07.782Z,11.8
2022-11-16T10:24:04.281Z,11.8
2022-11-16T10:29:26.494Z,11.7
2022-11-16T10:40:30.485Z,12.2
2022-11-16T10:46:09.411Z,12.3
2022-11-16T10:51:45.292Z,12.4
2022-11-16T10:57:16.228Z,12.5
2022-11-16T11:02:54.371Z,12.9
2022-11-16T11:08:14.739Z,12.9
2022-11-16T11:13:54.402Z,12.7
2022-11-16T11:19:25.181Z,12.9
2022-11-16T11:24:58.722Z,12.4
2022-11-16T11:30:44.779Z,12.9
2022-11-16T11:36:20.731Z,13
2022-11-16T11:41:54.178Z,13
2022-11-16T11:47:50.713Z,13.3
2022-11-16T11:53:05.475Z,13.1
2022-11-16T11:58:29.817Z,12.6
2022-11-16T12:04:06.860Z,12.5
2022-11-16T12:09:29.046Z,12.7
2022-11-16T12:14:55.188Z,13
2022-11-16T12:20:29.448Z,13.5
2022-11-16T12:26:11.970Z,13.8
2022-11-16T12:32:01.117Z,13.5
2022-11-16T12:37:14.569Z,13.8
2022-11-16T12:42:42.346Z,14
2022-11-16T12:48:42.291Z,14
2022-11-16T12:53:49.985Z,13.7
2022-11-16T12:59:30.831Z,13.8
2022-11-16T13:04:57.291Z,14
2022-11-16T13:10:40.528Z,14.1
2022-11-16T13:16:30.252Z,14.1
2022-11-16T13:22:01.013Z,14.1
2022-11-16T13:27:13.691Z,14
2022-11-16T13:32:46.887Z,13.8
2022-11-16T13:38:38.032Z,14
2022-11-16T13:43:55.737Z,13.7
2022-11-16T13:49:43.043Z,13.7
2022-11-16T13:55:23.874Z,14.1
2022-11-16T14:00:47.941Z,13.7
2022-11-16T14:06:37.583Z,13.9
2022-11-16T14:11:47.614Z,13.3
2022-11-16T14:17:30.893Z,13
2022-11-16T14:23:01.781Z,13
2022-11-16T14:28:38.893Z,12.8
2022-11-16T14:34:15.972Z,12.6
2022-11-16T14:39:36.396Z,12.5
2022-11-16T14:45:05.731Z,12.4
2022-11-16T14:51:00.619Z,12.2
2022-11-16T14:56:28.148Z,12.1
2022-11-16T15:01:52.206Z,12.1
2022-11-16T15:07:31.908Z,12
2022-11-16T15:13:08.467Z,11.9
2022-11-16T15:18:51.663Z,11.8
2022-11-16T15:24:29.718Z,11.9
2022-11-16T15:29:40.037Z,12
2022-11-16T15:35:06.388Z,12
2022-11-16T15:40:42.862Z,12
2022-11-16T15:46:09.045Z,11.8
2022-11-16T15:52:01.260Z,11.7
2022-11-16T15:57:21.138Z,11.3
2022-11-16T16:03:01.624Z,11
2022-11-16T16:08:35.013Z,10.8
2022-11-16T16:14:03.603Z,10.6
2022-11-16T16:19:44.193Z,10.3
2022-11-16T16:30:51.958Z,9.9
2022-11-16T16:36:21.620Z,9.7
2022-11-16T16:41:41.326Z,9.9
2022-11-16T16:47:10.370Z,9.6
2022-11-16T16:53:07.306Z,9.4
2022-11-16T16:58:39.705Z,9.1
2022-11-16T17:04:10.784Z,9.4
2022-11-16T17:09:18.266Z,9.7
2022-11-16T17:14:49.910Z,9.5
2022-11-16T17:20:44.140Z,9.2
2022-11-16T17:25:54.802Z,9.1
2022-11-16T17:31:47.459Z,8.9
2022-11-16T17:37:17.569Z,9
2022-11-16T17:42:44.821Z,8.8
2022-11-16T17:48:14.061Z,8.6
2022-11-16T17:53:42.391Z,8.4
2022-11-16T17:59:36.793Z,8
2022-11-16T18:04:50.833Z,7.6
2022-11-16T18:10:19.453Z,7.9
2022-11-16T18:15:50.033Z,8
2022-11-16T18:21:28.700Z,8.1
2022-11-16T18:26:58.527Z,7.9
2022-11-16T18:32:24.243Z,7.9
2022-11-16T18:38:07.364Z,7.2
2022-11-16T18:43:38.564Z,7.2
2022-11-16T18:49:08.123Z,7.4
2022-11-16T18:54:51.621Z,7.2
2022-11-16T19:00:30.391Z,7
2022-11-16T19:05:36.379Z,7
2022-11-16T19:11:17.008Z,7
2022-11-16T19:16:57.057Z,7.1
2022-11-16T19:22:14.395Z,6.8
2022-11-16T19:27:58.303Z,7.1
2022-11-16T19:33:40.547Z,7
2022-11-16T19:39:01.631Z,6.9
2022-11-16T19:44:42.122Z,7
2022-11-16T19:50:16.242Z,7
2022-11-16T19:55:52.810Z,7.1
2022-11-16T20:01:09.305Z,7.1
2022-11-16T20:06:57.117Z,7
2022-11-16T20:12:11.630Z,7
2022-11-16T20:18:02.044Z,7.1
2022-11-16T20:23:24.422Z,7.1
2022-11-16T20:29:07.031Z,7.1
2022-11-16T20:34:15.584Z,7
2022-11-16T20:39:55.994Z,7
2022-11-16T20:45:18.027Z,7
2022-11-16T20:50:54.854Z,7
2022-11-16T20:56:44.101Z,7
2022-11-16T21:02:17.182Z,7
2022-11-16T21:07:31.778Z,7.1
2022-11-16T21:13:06.996Z,7.1
2022-11-16T21:18:38.435Z,7.2
2022-11-16T21:24:19.992Z,7.3
2022-11-16T21:29:44.818Z,7.3
2022-11-16T21:35:37.207Z,7.4
2022-11-16T21:40:54.387Z,7.5
2022-11-16T21:46:42.592Z,7.4
2022-11-16T21:52:04.908Z,7.3
2022-11-16T21:57:34.024Z,7.2
2022-11-16T22:03:01.353Z,7.2
2022-11-16T22:08:46.188Z,7.2
2022-11-16T22:14:15.383Z,7.2
2022-11-16T22:19:48.722Z,7.3
2022-11-16T22:25:22.298Z,7.4
2022-11-16T22:31:00.370Z,7.4
2022-11-16T22:36:21.403Z,7.3
2022-11-16T22:41:44.065Z,7.3
2022-11-16T22:47:14.079Z,7.2
2022-11-16T22:53:08.547Z,7.2
2022-11-16T22:58:31.674Z,7.3
2022-11-16T23:03:46.488Z,7.4
2022-11-16T23:09:45.582Z,7.6
2022-11-16T23:15:07.869Z,7.6
2022-11-16T23:20:34.216Z,7.7
2022-11-16T23:26:07.859Z,7.7
2022-11-16T23:31:36.755Z,7.7
2022-11-16T23:37:07.416Z,7.5
2022-11-16T23:42:46.656Z,7.8
2022-11-16T23:48:27.305Z,7.8
2022-11-16T23:53:57.405Z,7.7
2022-11-16T23:59:37.360Z,7.7
